Time;durP1;ratioP1;P1;durP2;ratioP2;P2;SDS_P1;SDS_P2;PMS_P1;PMS_P2;Temp;Humidity;BMP_temperature;BMP_pressure;BME280_temperature;BME280_humidity;BME280_pressure;Samples;Min_cycle;Max_cycle;Signal;HPM_P1;HPM_P2
2023/04/19 00:01:19;;;;;;;3.38;1.10;;;;;;;9.52;70.44;102412.66;5086728;28;20064;-55
2023/04/19 00:03:44;;;;;;;1.55;0.75;;;;;;;9.54;70.35;102418.50;5061882;28;20062;-54
2023/04/19 00:06:13;;;;;;;0.43;0.43;;;;;;;9.56;70.08;102415.53;5078347;28;20067;-53
2023/04/19 00:08:38;;;;;;;1.38;1.17;;;;;;;9.47;70.80;102406.56;5078321;28;20450;-51
2023/04/19 00:11:04;;;;;;;2.53;1.15;;;;;;;9.48;70.80;102408.19;5087767;28;20156;-53
2023/04/19 00:13:50;;;;;;;2.67;1.48;;;;;;;9.45;71.14;102400.72;5073221;28;20086;-53
2023/04/19 00:16:15;;;;;;;0.88;0.57;;;;;;;9.42;70.78;102398.63;5005307;28;20184;-56
2023/04/19 00:18:41;;;;;;;1.55;0.95;;;;;;;9.38;70.90;102405.72;5008872;28;20089;-52
2023/04/19 00:21:07;;;;;;;1.05;0.93;;;;;;;9.40;70.80;102396.25;5008956;28;20037;-55
2023/04/19 00:23:33;;;;;;;1.33;1.20;;;;;;;9.34;71.18;102400.16;5008356;28;20112;-55
2023/04/19 00:26:02;;;;;;;0.95;0.60;;;;;;;9.24;71.43;102399.56;4992743;28;20092;-53
2023/04/19 00:28:28;;;;;;;0.60;0.60;;;;;;;9.25;71.54;102388.53;5008999;28;20100;-49
2023/04/19 00:30:53;;;;;;;1.30;0.70;;;;;;;9.21;71.89;102394.81;4993206;28;20055;-52
2023/04/19 00:33:18;;;;;;;4.13;0.77;;;;;;;9.14;71.94;102389.06;4990297;28;20045;-55
2023/04/19 00:35:44;;;;;;;1.60;0.85;;;;;;;9.02;72.36;102393.03;4992335;28;20512;-54
2023/04/19 00:38:12;;;;;;;6.43;0.63;;;;;;;9.03;72.23;102383.91;4987876;28;20444;-51
2023/04/19 00:40:39;;;;;;;0.43;0.40;;;;;;;9.08;71.73;102386.47;5009812;28;20069;-55
2023/04/19 00:43:05;;;;;;;1.95;0.98;;;;;;;9.10;71.52;102394.22;5002815;28;20042;-53
2023/04/19 00:45:34;;;;;;;0.98;0.90;;;;;;;9.04;72.10;102382.00;4978826;28;20181;-49
2023/04/19 00:48:00;;;;;;;1.13;1.02;;;;;;;9.01;71.71;102391.47;4996562;28;20070;-55
2023/04/19 00:50:26;;;;;;;0.65;0.65;;;;;;;9.13;71.23;102387.47;5008923;28;20151;-55
2023/04/19 00:52:53;;;;;;;0.88;0.63;;;;;;;9.08;70.81;102381.09;5023220;28;20055;-51
2023/04/19 00:55:18;;;;;;;1.38;0.80;;;;;;;9.06;71.04;102382.50;5056748;28;20066;-55
2023/04/19 00:57:44;;;;;;;1.15;0.70;;;;;;;9.09;70.76;102387.28;5042237;28;20100;-51
2023/04/19 01:00:10;;;;;;;0.68;0.60;;;;;;;9.01;70.54;102387.97;5068369;28;20502;-55
2023/04/19 01:02:36;;;;;;;0.50;0.50;;;;;;;8.96;70.81;102388.88;5055137;28;20422;-57
2023/04/19 01:05:02;;;;;;;0.77;0.57;;;;;;;8.95;70.63;102387.28;5083354;28;20035;-55
2023/04/19 01:07:28;;;;;;;0.77;0.57;;;;;;;9.01;70.59;102379.91;5063425;28;20047;-52
2023/04/19 01:09:53;;;;;;;0.55;0.55;;;;;;;8.98;70.42;102386.69;5077727;28;20036;-49
2023/04/19 01:12:21;;;;;;;1.42;0.70;;;;;;;8.94;70.57;102385.69;5078204;28;20051;-50
2023/04/19 01:14:47;;;;;;;0.40;0.40;;;;;;;8.77;70.43;102393.56;5072714;28;20032;-49
2023/04/19 01:17:13;;;;;;;1.92;0.80;;;;;;;8.78;70.41;102387.13;5071877;28;20032;-56
2023/04/19 01:19:38;;;;;;;1.23;1.00;;;;;;;8.85;70.16;102392.06;5070227;28;20036;-54
2023/04/19 01:22:05;;;;;;;0.98;0.63;;;;;;;8.84;70.29;102387.81;5072644;28;20028;-52
2023/04/19 01:24:30;;;;;;;1.55;0.82;;;;;;;8.83;70.37;102386.19;5071457;28;20040;-53
2023/04/19 01:26:56;;;;;;;0.40;0.40;;;;;;;8.90;69.95;102389.28;5081473;28;20043;-50
2023/04/19 01:29:22;;;;;;;0.50;0.43;;;;;;;8.78;70.21;102389.00;5086339;28;20020;-55
2023/04/19 01:31:52;;;;;;;0.95;0.80;;;;;;;8.70;70.55;102389.69;5071426;28;20016;-52
2023/04/19 01:34:24;;;;;;;1.13;0.50;;;;;;;8.79;70.17;102387.88;5076043;28;20410;-55
2023/04/19 01:36:50;;;;;;;0.57;0.52;;;;;;;8.82;70.04;102377.38;5081203;28;20336;-55
2023/04/19 01:39:15;;;;;;;1.65;1.05;;;;;;;8.78;70.04;102387.13;5070895;28;20546;-55
2023/04/19 01:41:41;;;;;;;0.75;0.43;;;;;;;8.73;70.26;102379.16;5069852;28;20115;-55
2023/04/19 01:44:08;;;;;;;0.52;0.52;;;;;;;8.72;70.07;102374.06;5047884;28;20024;-53
2023/04/19 01:46:35;;;;;;;1.40;0.95;;;;;;;8.69;70.43;102385.44;5058758;28;20028;-53
2023/04/19 01:49:00;;;;;;;0.52;0.50;;;;;;;8.65;70.43;102376.38;5080613;28;20363;-52
2023/04/19 01:51:26;;;;;;;0.60;0.60;;;;;;;8.70;70.12;102379.75;5056740;28;20090;-52
2023/04/19 01:53:53;;;;;;;0.63;0.40;;;;;;;8.67;70.09;102364.22;5059236;28;20578;-49
2023/04/19 01:56:20;;;;;;;0.68;0.65;;;;;;;8.70;70.06;102370.91;5036867;28;20046;-54
2023/04/19 01:58:46;;;;;;;0.73;0.73;;;;;;;8.62;70.52;102372.41;5066025;28;20032;-54
2023/04/19 02:01:11;;;;;;;0.32;0.30;;;;;;;8.58;71.00;102362.53;5048593;28;20394;-52
2023/04/19 02:03:38;;;;;;;0.77;0.77;;;;;;;8.56;70.81;102373.59;5064128;28;20028;-58
2023/04/19 02:06:04;;;;;;;0.47;0.47;;;;;;;8.52;71.09;102371.78;5079305;28;20097;-53
2023/04/19 02:08:32;;;;;;;0.50;0.40;;;;;;;8.48;71.11;102382.31;5071243;28;20036;-55
2023/04/19 02:10:59;;;;;;;0.73;0.70;;;;;;;8.45;71.84;102374.06;5057910;28;20016;-56
2023/04/19 02:13:24;;;;;;;3.60;0.80;;;;;;;8.46;72.02;102379.13;5059586;28;20123;-52
2023/04/19 02:15:50;;;;;;;0.70;0.45;;;;;;;8.47;72.11;102380.75;5089221;28;20020;-51
2023/04/19 02:18:16;;;;;;;0.88;0.88;;;;;;;8.42;72.29;102370.09;5089286;28;20036;-54
2023/04/19 02:20:42;;;;;;;0.30;0.20;;;;;;;8.44;72.45;102375.97;5088173;28;20070;-57
2023/04/19 02:23:08;;;;;;;0.60;0.60;;;;;;;8.43;72.82;102363.66;5067302;28;20050;-51
2023/04/19 02:25:34;;;;;;;0.40;0.40;;;;;;;8.45;72.71;102371.41;5081599;28;20040;-53
2023/04/19 02:27:59;;;;;;;0.50;0.50;;;;;;;8.35;73.33;102369.69;5084036;28;20008;-56
2023/04/19 02:30:25;;;;;;;0.32;0.32;;;;;;;8.41;73.54;102371.19;5059317;28;20031;-51
2023/04/19 02:32:50;;;;;;;3.63;0.60;;;;;;;8.45;73.70;102364.13;5078116;28;20067;-51
2023/04/19 02:35:19;;;;;;;1.25;0.77;;;;;;;8.44;73.71;102367.91;5055268;28;20028;-52
2023/04/19 02:37:44;;;;;;;0.57;0.57;;;;;;;8.42;74.30;102364.72;5075174;28;20433;-57
2023/04/19 02:40:10;;;;;;;0.70;0.70;;;;;;;8.45;74.12;102363.34;5070401;28;20123;-54
2023/04/19 02:42:36;;;;;;;1.10;0.95;;;;;;;8.41;74.42;102357.78;5050034;28;20095;-55
2023/04/19 02:45:01;;;;;;;1.77;0.45;;;;;;;8.44;74.50;102359.06;5060057;28;20111;-54
2023/04/19 02:47:27;;;;;;;1.73;0.73;;;;;;;8.44;74.92;102354.47;5081507;28;20040;-51
2023/04/19 02:49:52;;;;;;;1.63;0.65;;;;;;;8.38;75.32;102357.59;5082666;28;20036;-52
2023/04/19 02:52:18;;;;;;;0.93;0.65;;;;;;;8.32;75.43;102351.50;5061956;28;20402;-51
2023/04/19 02:54:44;;;;;;;0.65;0.60;;;;;;;8.21;76.13;102356.22;5055296;28;20020;-55
2023/04/19 02:57:09;;;;;;;0.60;0.57;;;;;;;8.24;75.97;102346.81;5055376;28;20107;-51
2023/04/19 02:59:36;;;;;;;3.00;0.60;;;;;;;8.16;75.96;102350.97;5081525;28;20062;-53
2023/04/19 03:02:03;;;;;;;0.68;0.60;;;;;;;8.15;76.07;102349.34;5066150;28;20547;-50
2023/04/19 03:04:30;;;;;;;2.72;0.95;;;;;;;8.16;76.73;102348.28;5060736;28;20040;-52
2023/04/19 03:06:55;;;;;;;0.82;0.80;;;;;;;8.17;76.71;102349.06;5055634;28;20089;-52
2023/04/19 03:09:21;;;;;;;1.20;0.98;;;;;;;8.15;76.85;102352.03;5069111;28;20020;-50
2023/04/19 03:11:47;;;;;;;0.50;0.50;;;;;;;8.12;76.75;102344.59;5056360;28;20026;-56
2023/04/19 03:14:12;;;;;;;1.55;0.73;;;;;;;8.11;76.80;102350.25;5076568;28;20032;-50
2023/04/19 03:16:38;;;;;;;3.28;0.73;;;;;;;8.11;76.75;102350.25;5077213;28;20044;-50
2023/04/19 03:19:03;;;;;;;1.00;0.90;;;;;;;8.06;76.75;102345.78;5062706;28;20089;-54
2023/04/19 03:21:35;;;;;;;0.40;0.40;;;;;;;8.07;76.93;102338.53;5060568;28;20031;-53
2023/04/19 03:24:01;;;;;;;0.70;0.55;;;;;;;8.08;77.25;102342.78;5058020;28;20045;-53
2023/04/19 03:26:29;;;;;;;0.85;0.50;;;;;;;8.04;77.31;102339.91;5065599;28;20035;-58
2023/04/19 03:28:56;;;;;;;0.55;0.55;;;;;;;7.98;77.24;102335.72;5066200;28;20093;-50
2023/04/19 03:31:38;;;;;;;0.57;0.57;;;;;;;7.96;77.48;102332.53;5075392;28;20119;-54
2023/04/19 03:34:03;;;;;;;1.00;0.70;;;;;;;8.00;76.86;102322.00;5063558;28;20177;-55
2023/04/19 03:36:36;;;;;;;0.30;0.30;;;;;;;8.00;76.90;102324.69;5060097;28;20089;-57
2023/04/19 03:39:02;;;;;;;1.90;0.40;;;;;;;7.95;77.21;102316.75;5070526;28;20020;-55
2023/04/19 03:41:48;;;;;;;0.40;0.40;;;;;;;7.92;76.94;102320.00;5061291;28;20623;-55
2023/04/19 03:44:23;;;;;;;0.70;0.60;;;;;;;7.95;76.88;102324.78;4998124;28;20045;-53
2023/04/19 03:46:49;;;;;;;1.75;0.50;;;;;;;8.01;76.53;102320.94;5015541;28;20440;-51
2023/04/19 03:49:18;;;;;;;0.50;0.35;;;;;;;8.00;76.54;102322.00;5013886;28;20030;-52
2023/04/19 03:51:49;;;;;;;0.80;0.63;;;;;;;8.05;76.43;102324.63;4996820;28;20029;-51
2023/04/19 03:54:15;;;;;;;1.00;0.73;;;;;;;8.02;76.17;102319.84;5019204;28;20049;-58
2023/04/19 03:56:40;;;;;;;0.57;0.57;;;;;;;8.02;76.01;102317.16;5025341;28;20095;-52
2023/04/19 03:59:06;;;;;;;0.47;0.47;;;;;;;7.99;76.23;102315.06;5016572;28;20025;-51
2023/04/19 04:01:40;;;;;;;0.50;0.47;;;;;;;7.99;76.34;102313.16;5011182;28;20038;-53
2023/04/19 04:04:09;;;;;;;;;;;;;;;7.97;76.17;102314.56;5054981;22;20619;-61
2023/04/19 04:06:34;;;;;;;2.28;0.80;;;;;;;7.98;75.97;102316.16;5082390;28;19923;-61
2023/04/19 04:09:00;;;;;;;0.30;0.30;;;;;;;7.98;75.81;102314.25;5074940;28;20016;-60
2023/04/19 04:11:26;;;;;;;0.80;0.65;;;;;;;7.99;76.14;102312.38;5086047;28;20028;-61
2023/04/19 04:14:11;;;;;;;0.30;0.30;;;;;;;7.96;75.81;102311.09;5090841;28;20870;-59
2023/04/19 04:16:38;;;;;;;0.85;0.57;;;;;;;7.94;76.17;102315.16;5027406;28;20132;-60
2023/04/19 04:19:03;;;;;;;0.32;0.32;;;;;;;7.94;76.10;102307.09;5032299;28;20140;-61
2023/04/19 04:21:32;;;;;;;0.68;0.68;;;;;;;8.00;76.03;102305.91;5030274;28;20076;-59
2023/04/19 04:24:00;;;;;;;0.40;0.40;;;;;;;7.93;76.24;102303.66;5049004;28;20029;-60
2023/04/19 04:26:56;;;;;;;;;;;;;;;7.93;76.79;102306.31;5042137;28;20052;-59
2023/04/19 04:29:24;;;;;;;3.33;0.65;;;;;;;7.90;77.07;102311.47;5027796;28;19913;-59
2023/04/19 04:31:52;;;;;;;0.60;0.60;;;;;;;7.92;77.18;102303.91;5032522;28;20392;-59
2023/04/19 04:34:23;;;;;;;0.30;0.30;;;;;;;7.89;77.17;102305.31;5032089;28;20060;-61
2023/04/19 04:36:55;;;;;;;1.63;0.70;;;;;;;7.92;77.49;102314.63;5032294;28;20036;-61
2023/04/19 04:39:22;;;;;;;0.70;0.70;;;;;;;7.89;78.01;102305.31;5031187;28;20119;-61
2023/04/19 04:41:48;;;;;;;0.60;0.60;;;;;;;7.91;77.57;102305.03;5045415;28;20037;-61
2023/04/19 04:44:15;;;;;;;0.55;0.55;;;;;;;7.93;78.10;102308.19;5020269;28;20525;-60
2023/04/19 04:46:41;;;;;;;9.07;0.70;;;;;;;8.04;77.43;102306.91;5049918;28;20045;-61
2023/04/19 04:49:10;;;;;;;0.95;0.77;;;;;;;8.05;77.40;102306.63;5028944;28;20064;-61
2023/04/19 04:51:36;;;;;;;3.85;0.95;;;;;;;8.07;78.04;102307.13;5037167;28;20681;-60
2023/04/19 04:54:04;;;;;;;1.67;1.05;;;;;;;8.12;77.51;102304.34;5063327;28;20063;-61
2023/04/19 04:56:30;;;;;;;0.90;0.57;;;;;;;8.09;77.82;102309.53;5079335;28;20036;-61
2023/04/19 04:58:56;;;;;;;1.40;0.75;;;;;;;8.16;77.58;102304.56;5084034;28;20038;-61
2023/04/19 05:01:29;;;;;;;1.25;0.68;;;;;;;8.19;77.29;102301.25;5081798;28;20624;-59
2023/04/19 05:04:10;;;;;;;0.57;0.57;;;;;;;8.20;77.79;102294.81;5077639;28;20112;-61
2023/04/19 05:06:36;;;;;;;0.88;0.88;;;;;;;8.26;77.90;102301.72;5078079;28;20459;-59
2023/04/19 05:09:02;;;;;;;0.40;0.40;;;;;;;8.30;77.75;102305.41;5076567;28;20020;-60
2023/04/19 05:11:32;;;;;;;0.63;0.63;;;;;;;8.35;77.33;102299.91;5072613;28;20452;-59
2023/04/19 05:13:57;;;;;;;0.73;0.73;;;;;;;8.42;77.14;102302.97;5079674;28;20040;-59
2023/04/19 05:16:23;;;;;;;0.60;0.60;;;;;;;8.44;77.35;102303.47;5070983;28;20047;-61
2023/04/19 05:18:48;;;;;;;0.60;0.60;;;;;;;8.42;77.43;102302.97;5075071;28;20234;-61
2023/04/19 05:21:14;;;;;;;0.38;0.30;;;;;;;8.43;77.70;102299.22;5087161;28;20044;-60
2023/04/19 05:23:41;;;;;;;0.38;0.38;;;;;;;8.43;77.86;102299.22;5080914;28;20051;-61
2023/04/19 05:26:11;;;;;;;0.55;0.47;;;;;;;8.45;77.93;102296.22;5089669;28;20406;-61
2023/04/19 05:28:37;;;;;;;0.47;0.47;;;;;;;8.53;77.37;102285.59;5099214;28;20085;-60
2023/04/19 05:31:08;;;;;;;0.98;0.82;;;;;;;8.59;77.53;102289.78;5079337;28;20047;-59
2023/04/19 05:33:43;;;;;;;0.50;0.50;;;;;;;8.65;77.57;102293.91;5076837;28;20032;-61
2023/04/19 05:36:08;;;;;;;0.30;0.30;;;;;;;8.69;77.61;102292.22;5071668;28;20406;-60
2023/04/19 05:38:34;;;;;;;0.40;0.40;;;;;;;8.76;77.75;102292.63;5087840;28;20688;-61
2023/04/19 05:41:02;;;;;;;1.45;0.65;;;;;;;8.76;76.48;102289.94;5085671;28;20115;-61
2023/04/19 05:43:27;;;;;;;0.57;0.45;;;;;;;8.85;76.67;102290.00;5081500;28;20032;-61
2023/04/19 05:45:56;;;;;;;0.40;0.40;;;;;;;8.97;76.37;102284.91;5085115;28;20028;-60
2023/04/19 05:48:22;;;;;;;1.70;0.40;;;;;;;9.06;75.95;102283.06;5087611;28;20035;-61
2023/04/19 05:51:07;;;;;;;0.30;0.30;;;;;;;9.13;75.25;102290.72;5063454;28;20069;-60
2023/04/19 05:54:00;;;;;;;0.43;0.40;;;;;;;9.24;74.79;102284.00;5077823;28;20035;-60
2023/04/19 05:56:26;;;;;;;0.40;0.40;;;;;;;9.32;73.56;102283.28;5085803;28;20059;-59
2023/04/19 05:58:51;;;;;;;0.50;0.50;;;;;;;9.46;72.92;102279.44;5083113;28;20418;-60
2023/04/19 06:01:17;;;;;;;1.20;0.50;;;;;;;9.59;72.06;102283.13;5089063;28;20491;-60
2023/04/19 06:03:42;;;;;;;0.68;0.68;;;;;;;9.62;71.77;102288.69;5084763;28;20039;-61
2023/04/19 06:06:08;;;;;;;0.30;0.30;;;;;;;9.78;71.33;102281.81;5072850;28;20029;-60
2023/04/19 06:08:33;;;;;;;0.95;0.63;;;;;;;9.87;69.87;102287.25;5084118;28;20016;-60
2023/04/19 06:10:59;;;;;;;0.40;0.30;;;;;;;9.96;69.34;102282.69;5081491;28;20158;-59
2023/04/19 06:13:25;;;;;;;0.20;0.20;;;;;;;10.10;68.54;102278.06;5083833;28;20359;-61
2023/04/19 06:15:51;;;;;;;0.80;0.60;;;;;;;10.19;67.61;102286.16;5080755;28;20129;-59
2023/04/19 06:18:16;;;;;;;0.50;0.30;;;;;;;10.30;66.85;102284.78;5065638;28;20525;-59
2023/04/19 06:20:42;;;;;;;0.68;0.68;;;;;;;10.36;65.34;102281.59;5069799;28;20082;-59
2023/04/19 06:23:08;;;;;;;0.15;0.15;;;;;;;10.47;64.07;102276.75;5096017;28;20028;-61
2023/04/19 06:25:33;;;;;;;0.30;0.30;;;;;;;10.69;63.86;102293.56;5074381;28;20476;-58
2023/04/19 06:27:59;;;;;;;0.47;0.30;;;;;;;10.84;63.02;102290.41;5080117;28;20032;-60
2023/04/19 06:30:25;;;;;;;0.30;0.30;;;;;;;11.02;60.48;102287.72;5075361;28;20107;-61
2023/04/19 06:32:50;;;;;;;0.52;0.20;;;;;;;11.15;59.48;102284.09;5069834;28;20032;-60
2023/04/19 06:35:15;;;;;;;0.13;0.13;;;;;;;11.27;58.90;102281.53;5088441;28;20089;-60
2023/04/19 06:37:41;;;;;;;0.25;0.22;;;;;;;11.53;58.21;102276.91;5081490;28;20024;-59
2023/04/19 06:40:08;;;;;;;0.10;0.10;;;;;;;11.65;56.80;102282.44;5083227;28;20059;-59
2023/04/19 06:42:34;;;;;;;0.32;0.25;;;;;;;11.72;56.70;102288.16;5073028;28;20024;-60
2023/04/19 06:44:59;;;;;;;0.55;0.20;;;;;;;11.83;57.38;102281.28;5074472;28;20027;-59
2023/04/19 06:47:25;;;;;;;0.30;0.10;;;;;;;11.97;56.22;102289.19;5074156;28;20804;-60
2023/04/19 06:49:51;;;;;;;0.43;0.40;;;;;;;12.15;56.81;102288.81;5073260;28;20028;-61
2023/04/19 06:52:16;;;;;;;0.10;0.10;;;;;;;12.39;55.87;102272.78;5073837;28;20043;-60
2023/04/19 06:54:46;;;;;;;0.25;0.20;;;;;;;12.52;55.39;102293.34;5072129;28;20548;-60
2023/04/19 06:57:12;;;;;;;0.17;0.17;;;;;;;12.70;54.52;102278.63;5075490;28;20032;-59
2023/04/19 06:59:38;;;;;;;0.13;0.10;;;;;;;12.60;54.28;102284.41;5083175;28;20122;-61
2023/04/19 07:02:04;;;;;;;0.10;0.10;;;;;;;12.75;54.42;102274.16;5087832;28;20115;-60
2023/04/19 07:04:30;;;;;;;0.50;0.17;;;;;;;12.91;54.35;102277.84;5074529;28;20415;-61
2023/04/19 07:06:55;;;;;;;0.17;0.17;;;;;;;13.02;53.05;102279.03;5084086;28;20040;-59
2023/04/19 07:09:21;;;;;;;0.20;0.20;;;;;;;13.16;53.14;102274.94;5075224;28;20071;-59
2023/04/19 07:11:47;;;;;;;0.38;0.28;;;;;;;13.28;51.89;102268.78;5087461;28;20442;-61
2023/04/19 07:14:12;;;;;;;0.00;0.00;;;;;;;13.49;52.09;102275.75;5088304;28;20430;-61
2023/04/19 07:16:38;;;;;;;0.00;0.00;;;;;;;13.61;52.42;102274.97;5086097;28;20036;-61
2023/04/19 07:19:03;;;;;;;0.10;0.10;;;;;;;13.76;51.40;102274.38;5087887;28;20479;-61
2023/04/19 07:21:32;;;;;;;0.20;0.13;;;;;;;13.88;51.17;102273.59;5077013;28;20039;-60
2023/04/19 07:23:58;;;;;;;2.92;0.22;;;;;;;14.05;51.24;102268.72;5065378;28;20120;-59
2023/04/19 07:26:23;;;;;;;0.10;0.10;;;;;;;14.26;51.79;102274.06;5073984;28;20043;-59
2023/04/19 07:28:49;;;;;;;0.20;0.20;;;;;;;14.41;50.50;102279.63;5083970;28;20036;-60
2023/04/19 07:31:16;;;;;;;0.20;0.20;;;;;;;14.41;50.04;102278.81;5081900;28;20040;-60
2023/04/19 07:33:42;;;;;;;0.13;0.10;;;;;;;14.48;50.21;102280.97;5084122;28;20024;-58
2023/04/19 07:36:08;;;;;;;0.70;0.05;;;;;;;14.53;50.03;102278.00;5073290;28;20056;-59
2023/04/19 07:38:34;;;;;;;0.03;0.03;;;;;;;14.65;49.78;102264.44;5069329;28;20060;-58
2023/04/19 07:40:59;;;;;;;0.30;0.30;;;;;;;14.77;48.94;102269.84;5076382;28;20119;-60
2023/04/19 07:43:25;;;;;;;0.03;0.03;;;;;;;14.86;48.91;102271.28;5079428;28;20024;-59
2023/04/19 07:45:52;;;;;;;0.20;0.20;;;;;;;14.72;47.80;102268.16;5078686;28;20025;-59
2023/04/19 07:48:17;;;;;;;0.32;0.15;;;;;;;14.83;48.50;102268.44;5071171;28;20028;-61
2023/04/19 07:50:43;;;;;;;0.10;0.10;;;;;;;15.05;48.41;102271.44;5089258;28;20422;-61
2023/04/19 07:53:08;;;;;;;0.10;0.05;;;;;;;15.21;48.08;102266.06;5074899;28;20407;-60
2023/04/19 07:55:34;;;;;;;0.10;0.10;;;;;;;15.47;47.69;102266.41;5073821;28;20032;-59
2023/04/19 07:58:02;;;;;;;0.30;0.20;;;;;;;15.65;47.51;102273.09;5069744;28;20035;-60
2023/04/19 08:00:33;;;;;;;0.35;0.20;;;;;;;15.79;46.54;102262.59;5071213;28;20052;-59
2023/04/19 08:02:59;;;;;;;0.10;0.10;;;;;;;15.84;46.29;102262.34;5072135;28;20090;-59
2023/04/19 08:05:25;;;;;;;0.10;0.00;;;;;;;15.80;46.40;102271.53;5073174;28;20044;-60
2023/04/19 08:07:52;;;;;;;0.13;0.13;;;;;;;15.96;46.00;102275.84;5086992;28;20059;-60
2023/04/19 08:10:18;;;;;;;0.20;0.20;;;;;;;16.10;45.65;102273.44;5084777;28;20032;-60
2023/04/19 08:12:43;;;;;;;0.00;0.00;;;;;;;16.25;45.70;102269.94;5079533;28;20025;-59
2023/04/19 08:15:09;;;;;;;0.10;0.10;;;;;;;16.47;44.24;102273.94;5072677;28;20023;-61
2023/04/19 08:17:34;;;;;;;0.10;0.10;;;;;;;16.44;44.68;102271.91;5078939;28;20035;-59
2023/04/19 08:20:00;;;;;;;0.20;0.10;;;;;;;16.49;44.38;102268.19;5073901;28;20020;-59
2023/04/19 08:22:25;;;;;;;0.63;0.10;;;;;;;16.56;44.19;102271.03;5069183;28;20033;-60
2023/04/19 08:24:51;;;;;;;0.10;0.10;;;;;;;16.74;43.32;102266.78;5081951;28;20359;-61
2023/04/19 08:27:17;;;;;;;0.00;0.00;;;;;;;16.93;43.31;102264.88;5090665;28;20020;-61
2023/04/19 08:29:43;;;;;;;0.20;0.20;;;;;;;16.85;42.59;102246.03;5087088;28;20032;-60
2023/04/19 08:32:10;;;;;;;0.10;0.10;;;;;;;16.88;43.34;102256.97;5092148;28;20032;-61
2023/04/19 08:34:37;;;;;;;0.20;0.15;;;;;;;17.00;42.80;102254.13;5091216;28;20221;-60
2023/04/19 08:37:03;;;;;;;0.20;0.10;;;;;;;17.13;42.90;102255.53;5087203;28;20019;-59
2023/04/19 08:39:29;;;;;;;0.00;0.00;;;;;;;17.35;41.75;102258.66;5090771;28;20039;-59
2023/04/19 08:41:56;;;;;;;0.50;0.20;;;;;;;17.32;41.50;102254.75;5085943;28;20024;-61
2023/04/19 08:44:23;;;;;;;0.45;0.15;;;;;;;17.52;40.28;102250.84;5086270;28;20024;-60
2023/04/19 08:46:52;;;;;;;0.20;0.10;;;;;;;17.71;40.33;102247.28;5077179;28;20036;-59
2023/04/19 08:49:19;;;;;;;0.10;0.10;;;;;;;17.76;39.58;102249.72;5078954;28;20036;-59
2023/04/19 08:51:50;;;;;;;0.10;0.10;;;;;;;17.70;40.03;102235.59;5076483;28;20028;-57
2023/04/19 08:54:17;;;;;;;0.10;0.10;;;;;;;17.66;39.77;102234.75;5076602;28;20498;-58
2023/04/19 08:56:42;;;;;;;0.75;0.30;;;;;;;17.57;40.16;102245.13;5090352;28;20040;-59
2023/04/19 08:59:12;;;;;;;0.10;0.00;;;;;;;17.69;39.17;102236.72;5088770;28;20028;-58
2023/04/19 09:01:37;;;;;;;0.15;0.15;;;;;;;17.89;37.49;102232.78;5072722;28;20024;-57
2023/04/19 09:04:05;;;;;;;0.10;0.10;;;;;;;18.00;37.81;102246.59;5073272;28;20392;-57
2023/04/19 09:06:35;;;;;;;0.65;0.30;;;;;;;18.13;38.01;102228.09;5072715;28;20020;-59
2023/04/19 09:09:17;;;;;;;0.22;0.17;;;;;;;18.17;37.63;102232.47;5068916;28;20128;-58
2023/04/19 09:11:43;;;;;;;0.63;0.10;;;;;;;18.39;37.29;102228.84;5064137;28;20047;-59
2023/04/19 09:14:10;;;;;;;0.10;0.10;;;;;;;18.45;37.62;102223.91;5068775;28;20036;-59
2023/04/19 09:16:37;;;;;;;0.22;0.20;;;;;;;18.54;38.21;102225.19;5076305;28;20569;-57
2023/04/19 09:19:02;;;;;;;0.20;0.10;;;;;;;18.64;37.72;102215.59;5083191;28;20032;-59
2023/04/19 09:21:30;;;;;;;0.10;0.10;;;;;;;18.80;37.18;102216.16;5082609;28;20039;-59
2023/04/19 09:23:56;;;;;;;0.30;0.20;;;;;;;18.87;37.96;102208.84;5082759;28;20024;-58
2023/04/19 09:26:21;;;;;;;0.50;0.20;;;;;;;19.07;38.17;102209.47;5080285;28;20389;-56
2023/04/19 09:29:01;;;;;;;0.10;0.10;;;;;;;19.09;36.79;102207.13;5068911;28;20028;-58
2023/04/19 09:31:35;;;;;;;1.02;0.10;;;;;;;19.10;36.82;102211.47;5078273;28;20123;-57
2023/04/19 09:34:15;;;;;;;0.00;0.00;;;;;;;18.98;34.82;102195.31;5082289;28;20059;-57
2023/04/19 09:36:40;;;;;;;0.00;0.00;;;;;;;19.16;35.43;102212.69;5071262;28;21025;-57
2023/04/19 09:39:06;;;;;;;0.70;0.22;;;;;;;18.94;35.65;102202.69;5076595;28;20028;-58
2023/04/19 09:41:32;;;;;;;0.20;0.20;;;;;;;18.91;36.10;102192.53;5075018;28;20032;-58
2023/04/19 09:44:11;;;;;;;0.47;0.17;;;;;;;19.23;36.40;102193.63;5073174;28;20086;-57
2023/04/19 09:46:37;;;;;;;0.55;0.30;;;;;;;19.40;35.59;102190.31;5071394;28;20024;-58
2023/04/19 09:49:12;;;;;;;3.00;0.20;;;;;;;19.11;32.85;102182.97;5073149;28;20028;-59
2023/04/19 09:51:41;;;;;;;1.02;0.20;;;;;;;19.14;34.00;102192.38;5078260;28;20385;-58
2023/04/19 09:54:08;;;;;;;0.20;0.10;;;;;;;19.00;33.43;102189.47;5086383;28;20035;-56
2023/04/19 09:56:38;;;;;;;1.25;0.20;;;;;;;19.31;33.67;102183.56;5081218;28;20031;-52
2023/04/19 09:59:04;;;;;;;0.20;0.20;;;;;;;19.49;33.58;102182.56;5087749;28;20055;-55
2023/04/19 10:01:37;;;;;;;0.20;0.20;;;;;;;19.40;31.64;102179.38;5075525;28;20033;-55
2023/04/19 10:04:06;;;;;;;0.10;0.10;;;;;;;19.13;32.09;102177.13;5089731;22;20037;-53
2023/04/19 10:06:34;;;;;;;0.20;0.20;;;;;;;19.21;32.23;102168.63;5052710;28;20165;-54
2023/04/19 10:09:03;;;;;;;0.20;0.15;;;;;;;19.24;32.40;102172.56;5055909;28;20119;-57
2023/04/19 10:11:37;;;;;;;0.10;0.10;;;;;;;19.34;31.93;102155.50;5054952;28;20514;-55
2023/04/19 10:14:05;;;;;;;0.38;0.25;;;;;;;19.37;31.97;102160.22;5059934;28;20055;-55
2023/04/19 10:16:32;;;;;;;0.35;0.20;;;;;;;19.47;32.08;102154.81;5055480;28;20115;-56
2023/04/19 10:18:58;;;;;;;0.10;0.10;;;;;;;19.80;32.09;102148.47;5059594;28;20071;-55
2023/04/19 10:21:26;;;;;;;0.10;0.10;;;;;;;19.82;31.76;102148.06;5056378;28;20036;-55
2023/04/19 10:23:52;;;;;;;1.65;0.30;;;;;;;19.90;31.23;102145.00;5049950;28;21025;-52
2023/04/19 10:26:17;;;;;;;0.10;0.10;;;;;;;20.03;31.17;102140.78;5065054;28;20036;-53
2023/04/19 10:28:43;;;;;;;0.30;0.20;;;;;;;20.18;30.63;102156.13;5066633;28;20433;-54
2023/04/19 10:31:14;;;;;;;0.73;0.30;;;;;;;20.31;30.42;102137.41;5067619;28;20491;-53
2023/04/19 10:33:40;;;;;;;0.13;0.08;;;;;;;20.03;30.17;102129.06;5060871;28;20035;-55
2023/04/19 10:36:16;;;;;;;0.32;0.20;;;;;;;20.09;30.75;102133.00;5046900;28;20044;-54
2023/04/19 10:38:48;;;;;;;0.10;0.10;;;;;;;20.17;30.49;102124.44;5061656;28;20111;-53
2023/04/19 10:41:15;;;;;;;0.30;0.17;;;;;;;20.30;28.82;102122.19;5062424;28;20037;-57
2023/04/19 10:43:44;;;;;;;0.63;0.30;;;;;;;20.22;28.62;102128.78;5040215;28;20059;-57
2023/04/19 10:46:21;;;;;;;0.63;0.35;;;;;;;19.92;28.46;102115.31;5055615;28;20032;-56
2023/04/19 10:49:00;;;;;;;0.55;0.40;;;;;;;19.44;29.28;102111.06;5035744;28;20389;-55
2023/04/19 10:51:27;;;;;;;0.20;0.20;;;;;;;19.47;29.57;102118.53;5056649;28;20025;-53
2023/04/19 10:54:00;;;;;;;1.45;0.10;;;;;;;19.85;29.54;102115.28;5059224;28;20493;-54
2023/04/19 10:56:32;;;;;;;0.50;0.20;;;;;;;20.18;29.14;102126.03;5062175;28;20035;-55
2023/04/19 10:59:06;;;;;;;1.02;0.50;;;;;;;20.05;28.87;102121.25;5065773;28;20624;-56
2023/04/19 11:01:39;;;;;;;1.40;0.32;;;;;;;20.38;29.73;102108.13;5063060;28;20036;-56
2023/04/19 11:04:05;;;;;;;1.20;0.35;;;;;;;20.55;29.53;102112.09;5053113;28;20043;-58
2023/04/19 11:06:36;;;;;;;0.43;0.28;;;;;;;20.42;29.06;102105.44;5049729;28;20071;-56
2023/04/19 11:09:04;;;;;;;0.82;0.28;;;;;;;20.28;29.83;102108.88;5041053;28;20811;-57
2023/04/19 11:11:35;;;;;;;0.22;0.20;;;;;;;20.28;30.29;102106.16;5050402;28;20037;-58
2023/04/19 11:14:03;;;;;;;0.17;0.10;;;;;;;20.55;29.02;102095.69;5042040;28;20157;-55
2023/04/19 11:16:29;;;;;;;0.20;0.20;;;;;;;20.55;29.72;102093.72;5054094;28;20082;-57
2023/04/19 11:18:55;;;;;;;0.68;0.20;;;;;;;20.46;29.81;102096.03;5033879;28;20040;-56
2023/04/19 11:21:21;;;;;;;0.20;0.20;;;;;;;20.79;30.38;102081.25;5052313;28;20032;-56
2023/04/19 11:23:48;;;;;;;0.40;0.30;;;;;;;20.64;28.13;102088.66;5052602;28;20036;-56
2023/04/19 11:26:16;;;;;;;0.43;0.25;;;;;;;20.67;27.66;102096.09;5059956;28;20035;-56
2023/04/19 11:28:43;;;;;;;0.40;0.28;;;;;;;20.61;28.27;102083.19;5050946;28;20530;-54
2023/04/19 11:31:09;;;;;;;0.30;0.20;;;;;;;20.63;28.43;102078.09;5055815;28;20025;-55